Time;durP1;ratioP1;P1;durP2;ratioP2;P2;SDS_P1;SDS_P2;PMS_P1;PMS_P2;Temp;Humidity;BMP_temperature;BMP_pressure;BME280_temperature;BME280_humidity;BME280_pressure;Samples;Min_cycle;Max_cycle;Signal;HPM_P1;HPM_P2
2020/12/12 00:01:29;;;;;;;31.55;19.35;;;-7.60;75.10;;;;;;5019158;28;20026;-87
2020/12/12 00:03:57;;;;;;;28.52;19.58;;;-7.60;75.30;;;;;;5044009;28;20026;-90
2020/12/12 00:06:23;;;;;;;30.83;18.38;;;-7.60;75.40;;;;;;5039761;28;20045;-93
2020/12/12 00:08:55;;;;;;;30.70;16.63;;;-7.60;75.40;;;;;;5027436;28;20053;-93
2020/12/12 00:11:25;;;;;;;36.35;20.83;;;-7.60;75.50;;;;;;5046592;28;20049;-92
2020/12/12 00:13:52;;;;;;;35.45;16.67;;;-7.60;75.50;;;;;;5016456;28;20038;-94
2020/12/12 00:16:18;;;;;;;;;;;-7.60;75.60;;;;;;5033887;28;20085;-92
2020/12/12 00:18:45;;;;;;;31.45;17.48;;;-7.60;75.50;;;;;;5030474;28;19964;-92
2020/12/12 00:21:15;;;;;;;26.88;13.90;;;-7.60;75.50;;;;;;5080971;28;20029;-86
2020/12/12 00:23:41;;;;;;;34.88;18.83;;;-7.60;75.40;;;;;;5078357;28;20029;-92
2020/12/12 00:26:08;;;;;;;35.35;19.92;;;-7.60;75.60;;;;;;5077640;28;20029;-91
2020/12/12 00:31:20;;;;;;;37.03;21.63;;;-7.50;75.80;;;;;;5079499;28;20029;-92
2020/12/12 00:33:48;;;;;;;36.78;18.95;;;-7.40;75.90;;;;;;5077143;28;20029;-93
2020/12/12 00:36:15;;;;;;;32.63;16.95;;;-7.30;75.50;;;;;;5071917;28;20035;-92
2020/12/12 00:38:41;;;;;;;;;;;-7.20;75.60;;;;;;5071803;28;20036;-92
2020/12/12 00:41:10;;;;;;;40.75;21.38;;;-7.10;75.40;;;;;;5052933;28;19913;-92
2020/12/12 00:43:37;;;;;;;43.92;22.20;;;-7.00;75.00;;;;;;5053395;28;20022;-86
2020/12/12 00:46:05;;;;;;;34.63;18.02;;;-7.00;74.80;;;;;;5026139;28;20041;-87
2020/12/12 00:48:31;;;;;;;34.25;18.95;;;-6.90;74.50;;;;;;5069790;28;20112;-93
2020/12/12 00:50:56;;;;;;;33.35;19.05;;;-7.00;74.50;;;;;;5043015;28;20040;-93
2020/12/12 00:53:22;;;;;;;45.70;19.30;;;-6.90;74.60;;;;;;5054866;28;20088;-93
2020/12/12 00:55:51;;;;;;;37.17;20.98;;;-6.90;74.30;;;;;;5042764;28;20021;-94
2020/12/12 00:58:17;;;;;;;36.20;17.67;;;-6.90;74.10;;;;;;5000987;28;20541;-91
2020/12/12 01:00:43;;;;;;;40.70;22.25;;;-6.80;74.10;;;;;;5029901;28;20056;-92
2020/12/12 01:03:09;;;;;;;35.97;18.67;;;-6.90;74.00;;;;;;5042023;28;20038;-90
2020/12/12 01:05:35;;;;;;;35.92;20.23;;;-6.90;73.90;;;;;;5045561;28;20029;-92
2020/12/12 01:08:01;;;;;;;36.78;21.55;;;-6.80;73.90;;;;;;5007290;28;20064;-91
2020/12/12 01:10:28;;;;;;;43.83;21.42;;;-6.90;73.80;;;;;;5021089;28;20045;-93
2020/12/12 01:12:54;;;;;;;30.75;18.83;;;-6.90;73.60;;;;;;5030229;28;20031;-93
2020/12/12 01:15:20;;;;;;;37.72;19.35;;;-6.90;73.70;;;;;;5072327;28;20045;-90
2020/12/12 01:17:46;;;;;;;36.42;20.58;;;-7.00;73.80;;;;;;5064677;28;20064;-88
2020/12/12 01:20:12;;;;;;;39.25;20.70;;;-7.00;73.80;;;;;;5076956;28;20037;-90
2020/12/12 01:22:39;;;;;;;36.42;21.17;;;-7.00;74.50;;;;;;5078360;28;20017;-92
2020/12/12 01:25:05;;;;;;;41.95;19.58;;;-7.10;74.00;;;;;;5059494;28;20025;-91
2020/12/12 01:27:31;;;;;;;43.38;21.13;;;-7.10;74.20;;;;;;5053346;28;20034;-90
2020/12/12 01:29:57;;;;;;;36.30;17.98;;;-7.20;74.30;;;;;;5060193;28;20397;-89
2020/12/12 01:32:23;;;;;;;32.75;19.80;;;-7.20;74.40;;;;;;5067575;28;20056;-89
2020/12/12 01:34:49;;;;;;;28.73;18.73;;;-7.30;74.50;;;;;;5069844;28;20060;-90
2020/12/12 01:37:15;;;;;;;37.42;20.75;;;-7.30;74.70;;;;;;5077437;28;20028;-91
2020/12/12 01:39:41;;;;;;;37.72;20.50;;;-7.40;74.90;;;;;;5069037;28;20033;-91
2020/12/12 01:42:08;;;;;;;31.85;19.05;;;-7.40;74.90;;;;;;5059270;28;20028;-90
2020/12/12 01:44:34;;;;;;;37.15;19.40;;;-7.40;74.90;;;;;;5057501;28;20466;-89
2020/12/12 01:47:18;;;;;;;33.80;20.00;;;-7.50;75.60;;;;;;5055036;28;20029;-89
2020/12/12 01:49:44;;;;;;;32.42;18.77;;;-7.50;75.20;;;;;;5051578;28;20398;-90
2020/12/12 01:52:11;;;;;;;34.30;18.58;;;-7.60;75.10;;;;;;5063567;28;20025;-87
2020/12/12 01:54:37;;;;;;;32.88;17.30;;;-7.60;75.80;;;;;;5063587;28;20029;-90
2020/12/12 01:57:07;;;;;;;38.42;19.38;;;-7.60;75.40;;;;;;5056064;28;20040;-90
2020/12/12 01:59:33;;;;;;;35.55;17.73;;;-7.70;75.50;;;;;;5054971;28;20017;-90
2020/12/12 02:02:01;;;;;;;36.95;20.65;;;-7.60;75.60;;;;;;5054667;28;20021;-89
2020/12/12 02:04:30;;;;;;;35.25;18.65;;;-7.60;75.60;;;;;;5051646;28;20029;-89
2020/12/12 02:06:56;;;;;;;37.25;19.85;;;-7.60;75.50;;;;;;5037878;28;20024;-88
2020/12/12 02:09:22;;;;;;;35.03;19.88;;;-7.60;75.50;;;;;;5053100;28;20468;-89
2020/12/12 02:12:07;;;;;;;34.70;17.85;;;-7.60;75.50;;;;;;5042139;28;20379;-91
2020/12/12 02:14:37;;;;;;;35.97;18.25;;;-7.60;75.40;;;;;;5056304;28;20087;-89
2020/12/12 02:17:05;;;;;;;29.38;19.20;;;-7.60;75.40;;;;;;5055028;28;20352;-90
2020/12/12 02:19:35;;;;;;;35.33;20.35;;;-7.60;75.30;;;;;;5054999;28;20021;-91
2020/12/12 02:22:05;;;;;;;33.47;18.55;;;-7.70;75.30;;;;;;5046344;28;20033;-90
2020/12/12 02:24:35;;;;;;;35.10;19.70;;;-7.60;75.40;;;;;;5049392;28;20478;-90
2020/12/12 02:27:06;;;;;;;33.08;17.70;;;-7.60;75.50;;;;;;5053872;28;20021;-89
2020/12/12 02:29:47;;;;;;;34.38;19.30;;;-7.60;75.50;;;;;;5048913;28;20029;-91
2020/12/12 02:32:13;;;;;;;34.75;19.70;;;-7.70;75.50;;;;;;5045073;28;20172;-89
2020/12/12 02:34:39;;;;;;;37.95;19.95;;;-7.70;75.50;;;;;;5055468;28;20096;-92
2020/12/12 02:37:05;;;;;;;34.58;17.58;;;-7.70;75.50;;;;;;5055819;28;20075;-90
2020/12/12 02:39:30;;;;;;;36.42;18.90;;;-7.70;75.60;;;;;;5028090;28;20116;-92
2020/12/12 02:42:01;;;;;;;34.08;18.23;;;-7.70;75.60;;;;;;5054616;28;20079;-92
2020/12/12 02:44:26;;;;;;;37.38;19.20;;;-7.70;75.70;;;;;;5061380;28;20021;-90
2020/12/12 02:50:15;;;;;;;31.70;17.27;;;-7.70;75.90;;;;;;5056758;28;20075;-89
2020/12/12 02:52:45;;;;;;;39.95;20.33;;;-7.80;75.70;;;;;;5054705;28;20112;-89
2020/12/12 02:55:12;;;;;;;29.38;16.85;;;-7.80;75.70;;;;;;5055564;28;20032;-91
2020/12/12 02:57:38;;;;;;;24.35;17.77;;;-7.70;75.70;;;;;;5055608;28;20111;-93
2020/12/12 03:00:10;;;;;;;30.92;17.67;;;-7.70;75.70;;;;;;5047266;28;20018;-92
2020/12/12 03:02:36;;;;;;;27.83;17.27;;;-7.80;75.70;;;;;;5060540;28;20059;-89
2020/12/12 03:05:04;;;;;;;39.45;19.63;;;-7.80;75.70;;;;;;5044182;28;20017;-88
2020/12/12 03:07:31;;;;;;;34.58;18.98;;;-7.80;75.70;;;;;;5057379;28;20029;-89
2020/12/12 03:09:56;;;;;;;32.90;17.85;;;-7.80;75.80;;;;;;5061812;28;20433;-88
2020/12/12 03:12:23;;;;;;;30.70;17.73;;;-7.80;75.80;;;;;;5067847;28;20029;-83
2020/12/12 03:14:49;;;;;;;36.60;17.83;;;-7.90;75.80;;;;;;5072180;28;20036;-90
2020/12/12 03:17:15;;;;;;;38.85;17.73;;;-7.90;75.90;;;;;;5064068;28;20036;-92
2020/12/12 03:19:41;;;;;;;39.63;19.02;;;-7.90;76.00;;;;;;5074306;28;20031;-91
2020/12/12 03:22:07;;;;;;;32.88;19.80;;;-7.90;76.10;;;;;;5059587;28;20090;-93
2020/12/12 03:24:34;;;;;;;33.28;18.30;;;-8.00;76.10;;;;;;5069138;28;20043;-91
2020/12/12 03:27:00;;;;;;;35.80;19.55;;;-8.00;76.20;;;;;;5075356;28;20036;-90
2020/12/12 03:29:26;;;;;;;42.13;20.63;;;-8.00;76.30;;;;;;5069294;28;20037;-89
2020/12/12 03:31:52;;;;;;;38.33;21.03;;;-8.00;76.40;;;;;;5062191;28;20082;-88
2020/12/12 03:34:18;;;;;;;31.75;18.15;;;-8.00;76.40;;;;;;5058796;28;20053;-90
2020/12/12 03:36:44;;;;;;;39.65;22.83;;;-8.00;76.40;;;;;;5056813;28;20501;-89
2020/12/12 03:39:10;;;;;;;39.50;21.30;;;-8.00;76.50;;;;;;5056135;28;20021;-90
2020/12/12 03:41:36;;;;;;;34.97;18.33;;;-8.00;76.60;;;;;;5064651;28;20128;-88
2020/12/12 03:44:03;;;;;;;34.95;19.67;;;-8.00;76.60;;;;;;5065203;28;20025;-86
2020/12/12 03:46:29;;;;;;;31.67;15.93;;;-8.00;76.60;;;;;;5063897;28;20017;-89
2020/12/12 03:48:55;;;;;;;39.00;20.35;;;-8.00;76.70;;;;;;5071509;28;20040;-86
2020/12/12 03:51:20;;;;;;;38.65;19.63;;;-8.00;76.60;;;;;;5075084;28;20044;-88
2020/12/12 03:53:46;;;;;;;35.45;19.20;;;-8.00;76.60;;;;;;5070039;28;20092;-89
2020/12/12 03:56:14;;;;;;;35.33;18.58;;;-8.00;76.60;;;;;;5069339;28;20017;-88
2020/12/12 03:58:41;;;;;;;33.85;19.30;;;-8.00;76.40;;;;;;5075792;28;20025;-87
2020/12/12 04:01:07;;;;;;;39.85;21.13;;;-8.10;76.30;;;;;;5059746;28;20060;-87
2020/12/12 04:03:33;;;;;;;31.58;20.10;;;-8.10;76.40;;;;;;5064414;28;20013;-89
2020/12/12 04:05:58;;;;;;;32.33;18.13;;;-8.10;76.40;;;;;;5068227;28;20195;-89
2020/12/12 04:08:24;;;;;;;35.33;20.00;;;-8.10;76.40;;;;;;5054206;28;20130;-90
2020/12/12 04:10:51;;;;;;;41.78;19.73;;;-8.10;76.30;;;;;;5054752;28;20052;-92
2020/12/12 04:13:16;;;;;;;36.55;18.15;;;-8.20;76.30;;;;;;5054750;28;20033;-91
2020/12/12 04:15:42;;;;;;;35.40;19.60;;;-8.20;76.20;;;;;;5053599;28;20025;-90
2020/12/12 04:18:09;;;;;;;42.93;22.23;;;-8.20;76.20;;;;;;5055075;28;20029;-89
2020/12/12 04:20:35;;;;;;;41.38;19.80;;;-8.20;76.30;;;;;;5054314;28;20254;-91
2020/12/12 04:23:00;;;;;;;37.38;19.90;;;-8.20;76.30;;;;;;5037951;28;20029;-92
2020/12/12 04:25:32;;;;;;;48.78;21.27;;;-8.20;76.20;;;;;;5053752;28;20060;-90
2020/12/12 04:27:58;;;;;;;39.20;20.63;;;-8.20;76.20;;;;;;5052326;28;20068;-90
2020/12/12 04:30:23;;;;;;;41.67;18.80;;;-8.20;76.30;;;;;;5056962;28;20048;-89
2020/12/12 04:32:49;;;;;;;38.20;20.60;;;-8.20;76.30;;;;;;5056947;28;20457;-89
2020/12/12 04:35:15;;;;;;;33.40;21.67;;;-8.20;76.40;;;;;;5055504;28;20494;-86
2020/12/12 04:37:41;;;;;;;43.72;23.35;;;-8.30;76.30;;;;;;5056301;28;20024;-85
2020/12/12 04:40:10;;;;;;;34.90;21.33;;;-8.30;76.40;;;;;;5054940;28;20052;-86
2020/12/12 04:42:37;;;;;;;42.00;22.60;;;-8.30;76.40;;;;;;5056416;28;20115;-84
2020/12/12 04:45:04;;;;;;;;;;;-8.30;76.50;;;;;;5056992;28;20025;-86
2020/12/12 04:47:30;;;;;;;41.38;23.83;;;-8.30;76.50;;;;;;5066522;28;19912;-86
2020/12/12 04:49:57;;;;;;;45.90;25.30;;;-8.30;76.40;;;;;;5070427;28;20036;-86
2020/12/12 04:52:24;;;;;;;38.83;24.30;;;-8.40;76.50;;;;;;5058779;28;20025;-86
2020/12/12 04:54:51;;;;;;;38.22;22.60;;;-8.30;76.70;;;;;;5056527;28;20429;-86
2020/12/12 04:57:17;;;;;;;;;;;-8.30;76.70;;;;;;5057018;28;20029;-86
2020/12/12 04:59:44;;;;;;;47.23;25.40;;;-8.30;76.60;;;;;;5056745;28;20417;-88
2020/12/12 05:02:12;;;;;;;45.47;22.60;;;-8.30;76.60;;;;;;5055817;28;20104;-88
2020/12/12 05:04:40;;;;;;;47.33;24.88;;;-8.30;76.80;;;;;;5056463;28;20025;-87
2020/12/12 05:07:07;;;;;;;43.10;25.45;;;-8.40;77.00;;;;;;5057172;28;20017;-87
2020/12/12 05:09:33;;;;;;;;;;;-8.40;77.30;;;;;;5057387;28;20057;-88
2020/12/12 05:11:59;;;;;;;52.72;25.17;;;-8.40;77.20;;;;;;5067745;28;19905;-88
2020/12/12 05:14:25;;;;;;;36.50;23.25;;;-8.40;77.20;;;;;;5068511;28;20021;-89
2020/12/12 05:16:54;;;;;;;46.92;24.70;;;-8.40;77.40;;;;;;5073595;28;20025;-87
2020/12/12 05:19:21;;;;;;;43.03;25.98;;;-8.30;77.60;;;;;;5074082;28;20021;-87
2020/12/12 05:21:53;;;;;;;40.45;23.27;;;-8.30;77.70;;;;;;5059945;28;20037;-91
2020/12/12 05:24:19;;;;;;;47.80;23.98;;;-8.30;77.80;;;;;;5048993;28;20022;-91
2020/12/12 05:26:46;;;;;;;48.08;24.83;;;-8.40;77.80;;;;;;5053166;28;20053;-91
2020/12/12 05:29:13;;;;;;;44.08;23.08;;;-8.40;78.00;;;;;;5056851;28;20033;-91
2020/12/12 05:31:39;;;;;;;47.88;24.38;;;-8.30;78.20;;;;;;5060341;28;20025;-90
2020/12/12 05:34:16;;;;;;;46.92;24.25;;;-8.30;78.20;;;;;;5057118;28;20351;-90
2020/12/12 05:36:44;;;;;;;41.30;22.50;;;-8.30;78.40;;;;;;5057207;28;20394;-92
2020/12/12 05:39:12;;;;;;;47.83;25.30;;;-8.30;78.40;;;;;;5060755;28;20562;-90
2020/12/12 05:41:39;;;;;;;49.85;24.13;;;-8.40;78.50;;;;;;5056554;28;20096;-91
2020/12/12 05:44:05;;;;;;;37.40;19.08;;;-8.30;79.00;;;;;;5058289;28;20036;-90
2020/12/12 05:46:31;;;;;;;43.83;24.27;;;-8.20;79.20;;;;;;5045510;28;20029;-89
2020/12/12 05:48:58;;;;;;;45.85;24.23;;;-8.10;79.20;;;;;;5055973;28;20025;-90
2020/12/12 05:51:45;;;;;;;41.33;21.90;;;-7.90;79.00;;;;;;5058466;28;20094;-90
2020/12/12 05:54:11;;;;;;;29.25;19.35;;;-7.70;78.80;;;;;;5044498;28;20009;-92
2020/12/12 05:56:37;;;;;;;41.33;17.50;;;-7.60;78.30;;;;;;5052308;28;20021;-89
2020/12/12 05:59:03;;;;;;;33.67;20.35;;;-7.70;77.80;;;;;;5062909;28;20086;-89
2020/12/12 06:01:30;;;;;;;44.47;21.45;;;-7.70;77.60;;;;;;5055041;28;20016;-88
2020/12/12 06:04:10;;;;;;;45.67;24.33;;;-7.80;77.60;;;;;;5078081;28;20077;-88
2020/12/12 06:06:47;;;;;;;44.60;21.52;;;-7.90;77.70;;;;;;5046128;28;20052;-89
2020/12/12 06:09:14;;;;;;;45.38;22.70;;;-7.90;77.80;;;;;;5061226;28;20032;-88
2020/12/12 06:11:46;;;;;;;41.38;22.15;;;-7.90;78.00;;;;;;5063097;28;20071;-88
2020/12/12 06:14:12;;;;;;;44.22;21.80;;;-7.90;77.80;;;;;;5057013;28;20103;-89
2020/12/12 06:16:39;;;;;;;48.85;25.00;;;-8.00;77.60;;;;;;5058223;28;20045;-90
2020/12/12 06:19:15;;;;;;;36.33;22.08;;;-8.00;77.70;;;;;;5056767;28;20032;-90
2020/12/12 06:21:46;;;;;;;42.20;24.15;;;-8.00;77.80;;;;;;5045046;28;20017;-87
2020/12/12 06:24:15;;;;;;;42.17;21.30;;;-8.10;77.70;;;;;;5073677;28;20037;-88
2020/12/12 06:26:50;;;;;;;49.92;23.15;;;-8.00;77.80;;;;;;5068266;28;20030;-86
2020/12/12 06:29:18;;;;;;;43.38;21.88;;;-8.00;77.90;;;;;;5074355;28;20029;-88
2020/12/12 06:31:44;;;;;;;38.42;21.45;;;-8.00;77.80;;;;;;5061582;28;20017;-90
2020/12/12 06:34:11;;;;;;;37.30;22.10;;;-8.10;77.60;;;;;;5057525;28;20112;-89
2020/12/12 06:36:37;;;;;;;39.63;22.25;;;-8.10;77.60;;;;;;5061696;28;20025;-89
2020/12/12 06:39:24;;;;;;;42.88;22.27;;;-8.10;77.70;;;;;;5068948;28;20021;-89
2020/12/12 06:41:55;;;;;;;48.25;23.35;;;-8.10;77.90;;;;;;5055331;28;20036;-88
2020/12/12 06:44:39;;;;;;;47.17;25.00;;;-8.10;77.80;;;;;;5053114;28;20037;-91
2020/12/12 06:47:06;;;;;;;37.30;19.65;;;-8.10;77.80;;;;;;5063470;28;20042;-90
2020/12/12 06:49:32;;;;;;;40.20;20.77;;;-8.00;77.70;;;;;;5054709;28;20021;-91
2020/12/12 06:51:58;;;;;;;36.92;20.42;;;-8.10;77.50;;;;;;5059197;28;20025;-90
2020/12/12 06:54:25;;;;;;;37.20;20.52;;;-8.10;77.60;;;;;;5056997;28;20509;-90
2020/12/12 06:56:51;;;;;;;45.75;23.08;;;-8.00;77.60;;;;;;5070155;28;20025;-88
2020/12/12 06:59:28;;;;;;;40.95;21.15;;;-8.00;77.60;;;;;;5066898;28;20043;-90
2020/12/12 07:02:03;;;;;;;38.67;21.98;;;-7.90;77.40;;;;;;5058378;28;20108;-90
2020/12/12 07:04:34;;;;;;;58.22;22.40;;;-7.90;77.20;;;;;;5056491;28;20017;-88
2020/12/12 07:07:10;;;;;;;38.75;23.55;;;-7.90;77.00;;;;;;5054918;28;20502;-91
2020/12/12 07:09:38;;;;;;;42.13;22.15;;;-7.90;76.90;;;;;;5064341;28;20124;-91
2020/12/12 07:12:05;;;;;;;38.17;20.77;;;-7.90;76.70;;;;;;5057674;28;20077;-90
2020/12/12 07:14:31;;;;;;;43.20;21.30;;;-7.90;76.40;;;;;;5061592;28;20039;-91
2020/12/12 07:17:00;;;;;;;39.17;19.30;;;-7.90;76.20;;;;;;5052009;28;20032;-92
2020/12/12 07:19:39;;;;;;;40.92;19.77;;;-7.90;76.30;;;;;;5070267;28;20087;-87
2020/12/12 07:22:11;;;;;;;41.50;23.05;;;-7.90;76.30;;;;;;5073944;28;20001;-91
2020/12/12 07:24:38;;;;;;;41.90;20.50;;;-7.90;76.20;;;;;;5067017;28;20021;-88
2020/12/12 07:27:04;;;;;;;27.55;15.10;;;-7.80;76.40;;;;;;5060765;28;20548;-87
2020/12/12 07:29:31;;;;;;;32.95;15.02;;;-7.80;76.80;;;;;;5069437;28;20123;-90
2020/12/12 07:31:59;;;;;;;33.42;19.42;;;-7.80;76.00;;;;;;5074272;28;20009;-91
2020/12/12 07:34:28;;;;;;;35.63;20.35;;;-7.90;75.90;;;;;;5075413;28;20025;-89
2020/12/12 07:37:07;;;;;;;40.20;21.58;;;-7.80;76.10;;;;;;5056815;28;20087;-84
2020/12/12 07:39:41;;;;;;;34.13;21.50;;;-7.80;75.90;;;;;;5044594;28;20032;-88
2020/12/12 07:42:11;;;;;;;36.55;19.42;;;-7.80;75.80;;;;;;5060276;28;20024;-89
2020/12/12 07:44:42;;;;;;;34.58;19.58;;;-7.80;75.70;;;;;;5066810;28;20509;-88
2020/12/12 07:47:10;;;;;;;38.00;19.83;;;-7.80;75.70;;;;;;5058170;28;20490;-89
2020/12/12 07:49:37;;;;;;;31.88;20.40;;;-7.70;75.60;;;;;;5055020;28;20036;-90
2020/12/12 07:52:11;;;;;;;38.22;20.52;;;-7.70;75.50;;;;;;5055271;28;20024;-89
2020/12/12 07:54:45;;;;;;;34.03;18.95;;;-7.60;75.50;;;;;;5041488;28;20029;-90
2020/12/12 07:57:15;;;;;;;43.53;22.80;;;-7.50;75.20;;;;;;5058042;28;20435;-87
2020/12/12 07:59:41;;;;;;;36.40;20.92;;;-7.30;75.30;;;;;;5069304;28;20041;-89
2020/12/12 08:02:09;;;;;;;34.80;19.58;;;-6.80;75.40;;;;;;5062737;28;20029;-88
2020/12/12 08:04:35;;;;;;;;;;;-6.40;74.40;;;;;;5060067;28;20024;-87
2020/12/12 08:07:11;;;;;;;40.20;19.60;;;-6.10;74.00;;;;;;5058373;28;19905;-89
2020/12/12 08:09:37;;;;;;;36.65;24.73;;;-5.80;72.90;;;;;;5056832;28;20049;-86
2020/12/12 08:12:04;;;;;;;37.88;21.40;;;-5.40;72.10;;;;;;5058558;28;20017;-88
2020/12/12 08:14:42;;;;;;;25.17;15.98;;;-5.20;70.70;;;;;;5057699;28;20056;-86
2020/12/12 08:17:10;;;;;;;36.65;20.60;;;-4.80;70.30;;;;;;5060369;28;20013;-85
2020/12/12 08:19:44;;;;;;;;;;;-4.30;69.40;;;;;;5039593;28;20039;-84
2020/12/12 08:22:20;;;;;;;34.42;17.90;;;-4.20;67.60;;;;;;5061503;28;19904;-86
2020/12/12 08:24:48;;;;;;;37.50;20.13;;;-4.30;66.20;;;;;;5059675;28;20032;-87
2020/12/12 08:27:23;;;;;;;40.40;21.33;;;-4.10;66.30;;;;;;5056246;28;20021;-86
2020/12/12 08:29:50;;;;;;;34.95;21.63;;;-3.70;65.80;;;;;;5045432;28;20032;-82
2020/12/12 08:32:36;;;;;;;33.78;21.63;;;-3.40;64.70;;;;;;5062073;28;20409;-84
2020/12/12 08:35:11;;;;;;;38.58;22.70;;;-3.20;62.90;;;;;;5057837;28;20544;-84
2020/12/12 08:37:37;;;;;;;33.90;21.65;;;-3.00;62.20;;;;;;5056503;28;20091;-85
2020/12/12 08:40:10;;;;;;;36.53;21.02;;;-3.00;61.60;;;;;;5053491;28;20140;-83
2020/12/12 08:42:36;;;;;;;32.65;21.80;;;-3.20;60.90;;;;;;5056876;28;20053;-83
2020/12/12 08:45:18;;;;;;;41.97;22.73;;;-3.40;61.70;;;;;;5055570;28;20025;-83
2020/12/12 08:47:44;;;;;;;36.55;22.05;;;-3.50;61.50;;;;;;5054538;28;20032;-84
2020/12/12 08:50:11;;;;;;;43.17;22.05;;;-3.60;61.00;;;;;;5045282;28;20021;-84
2020/12/12 08:52:43;;;;;;;34.45;21.75;;;-3.50;61.40;;;;;;5054091;28;20087;-84
2020/12/12 08:55:13;;;;;;;33.30;20.55;;;-3.40;61.20;;;;;;5054087;28;20123;-86
2020/12/12 08:57:39;;;;;;;41.83;21.10;;;-3.30;60.90;;;;;;5054028;28;20013;-84
2020/12/12 09:00:07;;;;;;;40.03;23.70;;;-3.30;60.40;;;;;;5056355;28;20028;-84
2020/12/12 09:02:33;;;;;;;42.22;21.33;;;-3.10;60.50;;;;;;5057577;28;20603;-85
2020/12/12 09:05:11;;;;;;;36.65;20.90;;;-2.70;60.10;;;;;;5055741;28;20021;-84
2020/12/12 09:07:38;;;;;;;35.05;19.52;;;-2.40;59.20;;;;;;5054546;28;20501;-84
2020/12/12 09:10:12;;;;;;;29.13;20.00;;;-2.20;58.60;;;;;;5044477;28;20045;-83
2020/12/12 09:12:51;;;;;;;35.35;21.40;;;-2.00;58.20;;;;;;5059169;28;20482;-85
2020/12/12 09:15:17;;;;;;;33.65;20.83;;;-2.00;57.20;;;;;;5062615;28;20021;-81
2020/12/12 09:17:58;;;;;;;39.90;24.65;;;-2.10;56.70;;;;;;5055252;28;20063;-81
2020/12/12 09:20:24;;;;;;;36.83;22.05;;;-2.20;56.80;;;;;;5050912;28;20048;-84
2020/12/12 09:22:50;;;;;;;38.95;22.67;;;-2.20;57.20;;;;;;5060553;28;20389;-82
2020/12/12 09:25:15;;;;;;;35.03;22.02;;;-2.20;57.00;;;;;;5051242;28;20044;-84
2020/12/12 09:27:41;;;;;;;38.00;22.65;;;-2.20;56.20;;;;;;5054785;28;20067;-83
2020/12/12 09:30:07;;;;;;;36.05;21.20;;;-2.40;55.50;;;;;;5054675;28;20033;-81
2020/12/12 09:32:33;;;;;;;37.38;21.75;;;-2.90;55.70;;;;;;5054931;28;20021;-82
2020/12/12 09:34:59;;;;;;;50.08;24.83;;;-3.40;56.40;;;;;;5060461;28;20445;-83
2020/12/12 09:37:24;;;;;;;37.30;20.23;;;-3.70;57.50;;;;;;5064717;28;20070;-82
2020/12/12 09:39:50;;;;;;;36.65;22.83;;;-4.00;58.40;;;;;;5054523;28;20090;-83
2020/12/12 09:42:16;;;;;;;40.90;22.00;;;-4.40;58.90;;;;;;5054523;28;20108;-83
2020/12/12 09:44:42;;;;;;;37.70;22.42;;;-4.60;59.60;;;;;;5054255;28;20027;-84
2020/12/12 09:47:08;;;;;;;36.53;20.92;;;-4.80;60.20;;;;;;5053961;28;20051;-84
2020/12/12 09:49:33;;;;;;;40.65;21.48;;;-4.90;60.80;;;;;;5053162;28;20032;-86
2020/12/12 09:51:59;;;;;;;43.17;23.77;;;-5.00;61.30;;;;;;5055271;28;20032;-85
2020/12/12 09:54:31;;;;;;;46.38;25.38;;;-5.10;61.70;;;;;;5055140;28;20017;-86
2020/12/12 09:56:57;;;;;;;41.75;23.25;;;-5.10;61.80;;;;;;5056585;28;20017;-84
2020/12/12 09:59:24;;;;;;;42.35;22.38;;;-5.10;62.10;;;;;;5059867;28;20013;-84
2020/12/12 10:01:50;;;;;;;34.15;19.58;;;-4.90;62.80;;;;;;5063043;28;20067;-86
2020/12/12 10:04:16;;;;;;;32.85;20.88;;;-4.30;63.00;;;;;;5065344;28;20033;-81
2020/12/12 10:06:42;;;;;;;35.33;20.33;;;-3.80;62.30;;;;;;5053618;28;20047;-82
2020/12/12 10:09:08;;;;;;;28.48;19.95;;;-3.10;61.00;;;;;;5053364;28;20397;-82
2020/12/12 10:11:34;;;;;;;35.08;19.58;;;-2.40;59.60;;;;;;5053288;28;20009;-83
2020/12/12 10:14:00;;;;;;;28.33;18.88;;;-1.70;58.10;;;;;;5052220;28;20423;-81
2020/12/12 10:16:26;;;;;;;36.35;22.17;;;-1.00;56.80;;;;;;5053350;28;20025;-83
2020/12/12 10:18:52;;;;;;;40.38;24.70;;;-0.20;55.90;;;;;;5056998;28;20017;-83
2020/12/12 10:21:18;;;;;;;32.22;18.80;;;0.80;53.80;;;;;;5056494;28;20027;-82
2020/12/12 10:23:44;;;;;;;33.75;20.92;;;1.40;51.50;;;;;;5053290;28;20025;-83
2020/12/12 10:26:09;;;;;;;32.83;21.90;;;1.30;49.20;;;;;;5054239;28;20050;-81
2020/12/12 10:28:35;;;;;;;29.88;18.33;;;0.50;48.50;;;;;;5053636;28;20032;-85
2020/12/12 10:31:01;;;;;;;35.55;19.00;;;-0.50;49.40;;;;;;5053535;28;20029;-84
2020/12/12 10:33:27;;;;;;;29.83;19.50;;;-1.40;50.70;;;;;;5053413;28;20027;-83
2020/12/12 10:35:53;;;;;;;33.60;19.83;;;-2.20;51.60;;;;;;5053607;28;20032;-83
2020/12/12 10:38:20;;;;;;;30.20;18.42;;;-2.80;53.00;;;;;;5053976;28;20397;-82
2020/12/12 10:40:49;;;;;;;33.67;19.98;;;-3.20;54.00;;;;;;5054622;28;20108;-83
2020/12/12 10:43:15;;;;;;;33.08;19.75;;;-3.50;54.80;;;;;;5054095;28;20021;-83
2020/12/12 10:45:42;;;;;;;32.38;18.25;;;-3.80;55.40;;;;;;5053160;28;20136;-85
2020/12/12 10:48:08;;;;;;;39.83;20.57;;;-3.90;56.10;;;;;;5053045;28;20504;-84
2020/12/12 10:50:33;;;;;;;39.75;23.17;;;-4.20;56.70;;;;;;5053471;28;20021;-83
2020/12/12 10:52:59;;;;;;;35.50;21.92;;;-4.40;57.40;;;;;;5054817;28;20024;-85
2020/12/12 10:55:25;;;;;;;34.88;23.58;;;-4.50;57.80;;;;;;5065297;28;20360;-84
2020/12/12 10:57:51;;;;;;;46.92;24.38;;;-4.60;58.40;;;;;;5065562;28;20042;-83
2020/12/12 11:00:27;;;;;;;53.67;27.65;;;-4.70;59.00;;;;;;5052166;28;20026;-85
2020/12/12 11:02:53;;;;;;;44.22;25.50;;;-4.90;59.50;;;;;;5044374;28;20025;-81
2020/12/12 11:05:20;;;;;;;49.92;28.85;;;-4.90;60.30;;;;;;5064622;28;20039;-83
2020/12/12 11:07:46;;;;;;;41.42;21.90;;;-5.00;60.50;;;;;;5069041;28;20028;-84
2020/12/12 11:10:12;;;;;;;45.47;25.85;;;-5.10;60.50;;;;;;5046252;28;20068;-83
2020/12/12 11:12:37;;;;;;;41.25;26.33;;;-5.10;61.20;;;;;;5060038;28;20025;-84
2020/12/12 11:15:03;;;;;;;39.97;21.42;;;-5.20;61.60;;;;;;5058431;28;20502;-83
2020/12/12 11:17:29;;;;;;;37.65;23.40;;;-5.20;61.70;;;;;;5052206;28;20215;-85
2020/12/12 11:19:55;;;;;;;40.85;26.42;;;-5.30;61.90;;;;;;5054429;28;20024;-83
2020/12/12 11:22:21;;;;;;;45.08;23.83;;;-5.30;62.30;;;;;;5053754;28;20021;-89
2020/12/12 11:24:46;;;;;;;50.38;26.85;;;-5.40;62.70;;;;;;5053377;28;20493;-82
2020/12/12 11:27:12;;;;;;;49.90;27.17;;;-5.60;63.30;;;;;;5052687;28;20017;-85
2020/12/12 11:29:38;;;;;;;56.92;26.48;;;-5.70;64.10;;;;;;5052890;28;20029;-83
2020/12/12 11:32:04;;;;;;;42.05;23.98;;;-5.70;64.20;;;;;;5054193;28;20013;-84
2020/12/12 11:34:40;;;;;;;42.05;25.52;;;-5.70;64.40;;;;;;5054442;28;20397;-83
2020/12/12 11:37:17;;;;;;;52.25;29.55;;;-5.80;64.30;;;;;;5053614;28;20449;-82
2020/12/12 11:47:43;;;;;;;49.80;27.33;;;-5.90;64.70;;;;;;5046374;28;20025;-82
2020/12/12 11:50:09;;;;;;;56.45;26.33;;;-5.90;65.00;;;;;;5045510;28;20048;-81
2020/12/12 11:52:38;;;;;;;48.05;26.88;;;-5.90;65.10;;;;;;5053731;28;20138;-83
2020/12/12 11:55:05;;;;;;;50.28;27.35;;;-5.90;65.50;;;;;;5057955;28;20029;-81
2020/12/12 11:57:32;;;;;;;;;;;-6.00;65.70;;;;;;5056579;28;20528;-82
2020/12/12 12:00:05;;;;;;;62.70;28.38;;;-6.00;65.70;;;;;;5055990;28;19905;-82
2020/12/12 12:02:31;;;;;;;46.70;25.55;;;-6.10;66.00;;;;;;5055903;28;20559;-82
2020/12/12 12:04:57;;;;;;;44.85;26.75;;;-6.20;66.30;;;;;;5056006;28;20053;-80
2020/12/12 12:07:23;;;;;;;43.67;23.15;;;-6.30;66.50;;;;;;5055886;28;20021;-81
2020/12/12 12:09:51;;;;;;;47.50;25.67;;;-6.30;66.70;;;;;;5055497;28;20041;-82
2020/12/12 12:12:17;;;;;;;46.25;26.40;;;-6.30;67.00;;;;;;5054798;28;20025;-81
2020/12/12 12:14:43;;;;;;;43.70;24.17;;;-6.40;67.00;;;;;;5055910;28;20426;-81
2020/12/12 12:17:09;;;;;;;59.08;26.13;;;-6.40;67.30;;;;;;5055755;28;20359;-82
2020/12/12 12:19:34;;;;;;;49.15;25.95;;;-6.40;67.60;;;;;;5051006;28;20547;-84
2020/12/12 12:22:00;;;;;;;40.97;22.90;;;-6.50;67.80;;;;;;5046957;28;20117;-82
2020/12/12 12:24:26;;;;;;;43.97;26.27;;;-6.50;68.20;;;;;;5050429;28;20103;-83
2020/12/12 12:26:52;;;;;;;46.72;25.45;;;-6.50;68.20;;;;;;5053642;28;20504;-82
2020/12/12 12:29:20;;;;;;;46.90;25.50;;;-6.60;68.40;;;;;;5055476;28;20040;-82
2020/12/12 12:31:48;;;;;;;46.75;25.13;;;-6.60;69.10;;;;;;5053467;28;20032;-81
2020/12/12 12:34:15;;;;;;;51.10;25.17;;;-6.60;69.10;;;;;;5039219;28;20471;-82
2020/12/12 12:36:41;;;;;;;39.55;24.38;;;-6.60;69.90;;;;;;5051535;28;20044;-82
2020/12/12 12:39:08;;;;;;;42.83;24.13;;;-6.70;69.20;;;;;;5050143;28;20053;-84
2020/12/12 12:41:35;;;;;;;40.35;23.60;;;-6.70;69.30;;;;;;5041076;28;20033;-83
2020/12/12 12:44:03;;;;;;;36.70;22.05;;;-6.70;69.40;;;;;;5060372;28;20470;-82
2020/12/12 12:46:29;;;;;;;;;;;-6.80;69.70;;;;;;5059473;28;20029;-83
2020/12/12 12:48:56;;;;;;;44.85;22.33;;;-6.90;69.80;;;;;;5056150;28;20002;-82